Ararat, North Carolina
Current Conditions -  °F | °C
As of 3:15 PM on Monday 24 Nov 2014 (Local Time) from KMWK Reporting Station
Scattered Clouds Scattered Clouds  
Wind Chill: 70°   Ceiling: Unl
Heat Index: 70°   Visibility: 10mi
Dew Point: 56°   Wind: 10mph
Humidity: 60%   Direction: 210°SSW
Pressure: 29.74"   Gusts: 17mph
Location:  36.4°N, 80.56°W
Report Text: KMWK 242015Z AUTO 21009G15KT 10SM SCT040 21/13 A2974 RMK AO2 T02120131
Loading
Personal Weather Stations






























Interactive Weather Map New forecast layout! Learn more

10-Day Weather Forecast

Advertisements
Track Severe Weather on mobile